Time;durP1;ratioP1;P1;durP2;ratioP2;P2;SDS_P1;SDS_P2;PMS_P1;PMS_P2;Temp;Humidity;BMP_temperature;BMP_pressure;BME280_temperature;BME280_humidity;BME280_pressure;Samples;Min_cycle;Max_cycle;Signal;HPM_P1;HPM_P2
2022/06/19 00:00:47;;;;;;;3.33;2.45;;;28.30;61.20;;;;;;10942527;32;20362;-67
2022/06/19 00:06:51;;;;;;;3.10;1.98;;;28.30;61.20;;;;;;10942392;32;20031;-67
2022/06/19 00:12:54;;;;;;;4.62;2.12;;;28.30;61.10;;;;;;10942369;32;20023;-67
2022/06/19 00:18:57;;;;;;;3.25;1.73;;;28.20;61.50;;;;;;10928733;32;20057;-67
2022/06/19 00:24:59;;;;;;;2.92;1.90;;;28.30;61.40;;;;;;10942647;32;20031;-67
2022/06/19 00:31:01;;;;;;;3.70;2.70;;;28.10;61.80;;;;;;10928449;32;20027;-67
2022/06/19 00:37:05;;;;;;;3.37;2.15;;;28.10;61.40;;;;;;10941826;32;20019;-67
2022/06/19 00:43:07;;;;;;;3.55;1.95;;;28.10;61.70;;;;;;10928199;32;20049;-67
2022/06/19 00:49:14;;;;;;;2.45;2.00;;;28.00;61.90;;;;;;10941581;32;20437;-67
2022/06/19 00:55:47;;;;;;;3.33;1.92;;;27.90;62.10;;;;;;10930223;32;20031;-67
2022/06/19 01:01:49;;;;;;;2.90;2.10;;;27.80;62.30;;;;;;10948803;32;20031;-67
2022/06/19 01:07:53;;;;;;;5.25;2.30;;;27.80;62.70;;;;;;10949189;32;20019;-67
2022/06/19 01:13:57;;;;;;;2.03;1.62;;;27.70;63.00;;;;;;10948254;32;20046;-67
2022/06/19 01:20:05;;;;;;;2.90;2.17;;;27.70;62.90;;;;;;10948165;32;20089;-67
2022/06/19 01:26:12;;;;;;;3.70;2.40;;;27.80;62.60;;;;;;10947874;32;20042;-67
2022/06/19 01:32:14;;;;;;;3.53;2.25;;;27.60;63.00;;;;;;10947614;32;20053;-67
2022/06/19 01:38:20;;;;;;;4.47;2.78;;;27.50;63.30;;;;;;10943259;32;20433;-67
2022/06/19 01:44:25;;;;;;;2.03;1.83;;;27.60;63.00;;;;;;10947323;32;20023;-67
2022/06/19 01:50:30;;;;;;;4.72;2.42;;;27.50;63.00;;;;;;10945973;32;20018;-67
2022/06/19 01:56:32;;;;;;;5.15;1.98;;;27.40;63.40;;;;;;10945150;32;20046;-66
2022/06/19 02:02:36;;;;;;;3.97;2.15;;;27.30;63.70;;;;;;10946744;32;20019;-67
2022/06/19 02:08:40;;;;;;;2.95;2.20;;;27.30;63.80;;;;;;10944101;32;20042;-67
2022/06/19 02:14:42;;;;;;;4.53;2.75;;;27.40;63.60;;;;;;10947615;32;20049;-67
2022/06/19 02:20:44;;;;;;;3.75;2.60;;;27.40;63.90;;;;;;10944779;32;20015;-67
2022/06/19 02:26:48;;;;;;;4.37;2.58;;;27.30;63.60;;;;;;10943876;32;20028;-67
2022/06/19 02:32:51;;;;;;;3.92;2.45;;;27.30;63.80;;;;;;10932455;32;20007;-67
2022/06/19 02:39:19;;;;;;;5.15;2.40;;;27.30;63.30;;;;;;10941130;32;20053;-67
2022/06/19 02:45:26;;;;;;;;;;;27.10;63.60;;;;;;10944876;32;20042;-67
2022/06/19 02:51:28;;;;;;;3.72;2.25;;;27.00;63.90;;;;;;10941573;32;19931;-67
2022/06/19 02:57:30;;;;;;;8.35;4.20;;;27.00;64.60;;;;;;10937843;32;20046;-67
2022/06/19 03:03:38;;;;;;;3.85;2.75;;;27.00;64.80;;;;;;10940410;32;20445;-67
2022/06/19 03:09:40;;;;;;;7.05;3.40;;;27.00;64.50;;;;;;10944283;32;20429;-67
2022/06/19 03:15:42;;;;;;;3.90;3.00;;;26.90;64.50;;;;;;10939960;32;20024;-67
2022/06/19 03:21:45;;;;;;;9.93;3.45;;;26.80;64.80;;;;;;10938829;32;20399;-67
2022/06/19 03:27:48;;;;;;;6.55;3.33;;;26.70;65.00;;;;;;10942918;32;20042;-67
2022/06/19 03:33:50;;;;;;;4.47;2.90;;;26.60;65.20;;;;;;10943478;32;20034;-67
2022/06/19 03:39:52;;;;;;;5.03;2.50;;;26.50;65.60;;;;;;10943419;32;20041;-67
2022/06/19 03:45:59;;;;;;;2.78;2.47;;;26.50;65.70;;;;;;10938715;32;20023;-67
2022/06/19 03:52:01;;;;;;;3.90;2.80;;;26.30;65.80;;;;;;10942851;32;20395;-67
2022/06/19 03:58:03;;;;;;;6.25;3.10;;;26.40;65.50;;;;;;10942652;32;20026;-67
2022/06/19 04:04:06;;;;;;;5.20;3.25;;;26.40;65.60;;;;;;10940795;32;20402;-67
2022/06/19 04:10:09;;;;;;;3.30;2.50;;;26.30;65.70;;;;;;10942342;32;20311;-67
2022/06/19 04:16:21;;;;;;;6.43;3.62;;;26.20;65.90;;;;;;10928888;32;20421;-67
2022/06/19 04:22:23;;;;;;;5.30;4.03;;;26.20;66.10;;;;;;10942044;32;20350;-67
2022/06/19 04:28:25;;;;;;;4.60;3.45;;;26.30;65.90;;;;;;10974863;27;20068;-67
2022/06/19 04:34:27;;;;;;;6.07;3.95;;;26.50;65.30;;;;;;11017558;32;20018;-67
2022/06/19 04:40:29;;;;;;;4.93;3.92;;;26.50;65.20;;;;;;11003928;32;20377;-67
2022/06/19 04:46:32;;;;;;;4.03;3.25;;;26.40;65.50;;;;;;11017445;32;20014;-67
2022/06/19 04:52:34;;;;;;;6.37;4.03;;;26.40;65.70;;;;;;11017056;32;20320;-67
2022/06/19 04:58:36;;;;;;;5.78;4.55;;;26.30;65.80;;;;;;11013020;32;20022;-67
2022/06/19 05:04:38;;;;;;;7.45;4.28;;;26.40;65.80;;;;;;11012926;32;20030;-67
2022/06/19 05:10:41;;;;;;;5.85;4.32;;;26.40;65.70;;;;;;11016937;32;20014;-66
2022/06/19 05:16:43;;;;;;;6.37;5.32;;;26.50;65.50;;;;;;11016878;32;20030;-67
2022/06/19 05:22:45;;;;;;;6.97;5.28;;;26.50;65.50;;;;;;11016837;32;20049;-67
2022/06/19 05:28:50;;;;;;;7.65;5.95;;;26.70;65.30;;;;;;11016584;32;20023;-67
2022/06/19 05:34:52;;;;;;;6.37;4.95;;;26.70;65.20;;;;;;11016473;32;20049;-67
2022/06/19 05:41:14;;;;;;;5.40;4.80;;;26.80;65.00;;;;;;11003365;32;20049;-67
2022/06/19 05:47:17;;;;;;;6.47;4.82;;;26.90;64.70;;;;;;11009600;32;20026;-67
2022/06/19 05:53:19;;;;;;;6.43;4.68;;;27.00;64.50;;;;;;11018700;32;20569;-67
2022/06/19 05:59:21;;;;;;;6.90;5.37;;;27.10;64.30;;;;;;11022546;32;20041;-67
2022/06/19 06:05:23;;;;;;;6.37;4.72;;;27.30;64.10;;;;;;11020374;32;20022;-67
2022/06/19 06:11:25;;;;;;;8.23;5.32;;;27.40;63.80;;;;;;11004287;32;20375;-67
2022/06/19 06:17:27;;;;;;;6.37;4.72;;;27.50;63.70;;;;;;11020733;32;20026;-67
2022/06/19 06:23:30;;;;;;;7.10;4.87;;;27.60;63.40;;;;;;11021707;32;20084;-67
2022/06/19 06:29:43;;;;;;;6.00;4.93;;;27.70;63.40;;;;;;11021569;32;20022;-67
2022/06/19 06:35:51;;;;;;;7.37;5.45;;;27.90;63.00;;;;;;11017191;32;20052;-67
2022/06/19 06:41:53;;;;;;;6.35;4.65;;;27.90;62.80;;;;;;11021005;32;20045;-67
2022/06/19 06:47:55;;;;;;;6.97;5.25;;;27.90;62.60;;;;;;11020350;32;20025;-69
2022/06/19 06:54:11;;;;;;;6.40;4.72;;;28.10;62.40;;;;;;11020691;32;20418;-66
2022/06/19 07:00:19;;;;;;;6.15;4.55;;;28.20;62.40;;;;;;11020470;32;20049;-67
2022/06/19 07:06:46;;;;;;;7.93;4.93;;;28.30;62.10;;;;;;11018243;32;20049;-67
2022/06/19 07:12:48;;;;;;;7.40;5.62;;;28.40;61.90;;;;;;11020075;32;20326;-67
2022/06/19 07:18:52;;;;;;;5.87;4.85;;;28.60;61.50;;;;;;11016384;32;20049;-67
2022/06/19 07:24:54;;;;;;;7.60;5.75;;;28.70;61.20;;;;;;11017930;32;20345;-67
2022/06/19 07:30:56;;;;;;;5.72;4.60;;;28.80;61.30;;;;;;11018886;32;20041;-67
2022/06/19 07:37:18;;;;;;;9.98;4.75;;;28.90;60.90;;;;;;11014472;32;20318;-67
2022/06/19 07:43:43;;;;;;;6.82;4.87;;;29.10;60.20;;;;;;11019027;32;20422;-67
2022/06/19 07:56:07;;;;;;;5.03;3.75;;;29.30;59.00;;;;;;11018574;32;20049;-67
2022/06/19 08:02:09;;;;;;;7.10;5.37;;;29.30;58.50;;;;;;11012857;32;20507;-67
2022/06/19 08:08:20;;;;;;;6.28;4.25;;;29.50;57.30;;;;;;11017964;32;20044;-67
2022/06/19 08:14:22;;;;;;;5.70;2.78;;;29.50;56.50;;;;;;11001790;32;20018;-66
2022/06/19 08:20:25;;;;;;;3.67;2.70;;;29.70;56.30;;;;;;11015131;32;20053;-67
2022/06/19 08:26:27;;;;;;;4.28;2.95;;;29.80;54.90;;;;;;11017834;32;20412;-67
2022/06/19 08:32:29;;;;;;;3.00;2.65;;;29.80;53.40;;;;;;11016653;32;20046;-67
2022/06/19 08:39:26;;;;;;;3.30;2.37;;;29.80;52.90;;;;;;11017750;32;20353;-66
2022/06/19 08:45:44;;;;;;;3.42;2.20;;;30.10;52.70;;;;;;11017618;32;20057;-67
2022/06/19 08:52:18;;;;;;;3.67;2.90;;;30.30;52.10;;;;;;10999450;32;20176;-67
2022/06/19 08:58:27;;;;;;;4.40;2.25;;;30.50;51.80;;;;;;11003029;32;20103;-67
2022/06/19 09:12:11;;;;;;;3.95;2.65;;;30.70;49.80;;;;;;11017058;32;20060;-67
2022/06/19 09:18:22;;;;;;;3.58;2.67;;;30.80;49.10;;;;;;10825231;32;20042;-67
2022/06/19 09:24:38;;;;;;;3.62;2.87;;;30.80;48.40;;;;;;10829049;32;20039;-66
2022/06/19 09:31:17;;;;;;;3.25;2.40;;;31.00;46.90;;;;;;10831879;32;20032;-68
2022/06/19 09:37:22;;;;;;;5.35;2.83;;;31.10;46.70;;;;;;10831516;32;20359;-70
2022/06/19 09:43:39;;;;;;;2.37;2.00;;;31.30;46.50;;;;;;10831414;32;20035;-67
2022/06/19 09:49:43;;;;;;;4.13;2.93;;;31.40;45.30;;;;;;10846069;32;20022;-69
2022/06/19 09:55:51;;;;;;;10.85;3.60;;;31.50;45.30;;;;;;11023015;32;20342;-71
2022/06/19 10:01:58;;;;;;;2.55;1.92;;;31.60;45.10;;;;;;11007255;32;20030;-67
2022/06/19 10:08:08;;;;;;;3.05;2.42;;;31.80;45.30;;;;;;10983932;32;20053;-67
2022/06/19 10:14:29;;;;;;;2.85;1.73;;;32.20;44.20;;;;;;11011197;32;20402;-67
2022/06/19 10:21:00;;;;;;;3.22;1.55;;;32.40;43.80;;;;;;11004190;32;20030;-67
2022/06/19 10:27:36;;;;;;;2.05;1.60;;;32.60;43.20;;;;;;11017416;32;20052;-69
2022/06/19 10:34:18;;;;;;;2.77;2.17;;;32.70;42.60;;;;;;10818245;32;20054;-69
2022/06/19 10:40:32;;;;;;;3.15;1.98;;;32.90;42.10;;;;;;10825121;32;20103;-68
2022/06/19 10:46:34;;;;;;;5.60;2.15;;;33.30;41.90;;;;;;10826154;32;20027;-68
2022/06/19 10:52:55;;;;;;;4.57;2.42;;;33.50;42.10;;;;;;10828922;32;20015;-67
2022/06/19 10:58:59;;;;;;;3.05;2.17;;;33.60;41.00;;;;;;10828611;32;20024;-67
2022/06/19 11:05:10;;;;;;;4.40;2.53;;;33.80;40.80;;;;;;10828315;32;20031;-67
2022/06/19 11:11:16;;;;;;;4.18;2.83;;;33.90;40.60;;;;;;11016040;32;20036;-67
2022/06/19 11:17:39;;;;;;;3.67;2.47;;;34.10;40.30;;;;;;11006308;32;20030;-67
2022/06/19 11:23:48;;;;;;;4.05;2.78;;;34.30;40.00;;;;;;11019738;32;20022;-70
2022/06/19 11:29:53;;;;;;;2.62;2.08;;;34.60;39.70;;;;;;11015438;32;20044;-68
2022/06/19 11:36:00;;;;;;;4.40;2.87;;;34.70;39.30;;;;;;11019497;32;20576;-75
2022/06/19 11:42:31;;;;;;;3.58;2.53;;;35.00;38.80;;;;;;11004744;32;20022;-74
2022/06/19 11:48:33;;;;;;;3.20;2.20;;;35.30;38.70;;;;;;11016093;32;20030;-73
2022/06/19 11:54:42;;;;;;;6.90;2.90;;;35.50;37.80;;;;;;11018678;32;20049;-74
2022/06/19 12:00:45;;;;;;;3.58;2.22;;;35.60;37.30;;;;;;11018572;32;20019;-74
2022/06/19 12:06:50;;;;;;;3.60;2.50;;;35.80;37.20;;;;;;11018271;32;20009;-74
2022/06/19 12:13:02;;;;;;;3.78;2.35;;;35.70;36.90;;;;;;11004301;32;20030;-74
2022/06/19 12:19:28;;;;;;;6.97;2.40;;;35.70;36.70;;;;;;11018125;32;20022;-73
2022/06/19 12:25:43;;;;;;;2.72;2.12;;;35.80;37.10;;;;;;11018044;32;20049;-73
2022/06/19 12:31:46;;;;;;;3.03;2.20;;;35.70;37.40;;;;;;11040679;27;20041;-73
2022/06/19 12:37:48;;;;;;;10.00;2.62;;;35.50;37.70;;;;;;11056033;32;20014;-69
2022/06/19 12:44:14;;;;;;;4.32;2.75;;;35.50;37.90;;;;;;11055839;32;20053;-75
2022/06/19 12:50:54;;;;;;;4.40;2.47;;;35.40;37.50;;;;;;11056828;32;20048;-74
2022/06/19 12:56:56;;;;;;;4.87;1.98;;;35.50;37.40;;;;;;10870002;32;20024;-73
2022/06/19 13:03:07;;;;;;;4.55;1.95;;;35.50;36.80;;;;;;10870871;32;20046;-73
2022/06/19 13:09:37;;;;;;;1.90;1.67;;;35.50;37.40;;;;;;10870664;32;20324;-74
2022/06/19 13:15:59;;;;;;;5.07;1.75;;;35.40;37.40;;;;;;10870399;32;20053;-75
2022/06/19 13:22:19;;;;;;;4.25;1.90;;;35.40;37.30;;;;;;10870110;32;20031;-75
2022/06/19 13:28:39;;;;;;;4.22;2.42;;;35.30;37.20;;;;;;11041597;32;20030;-73
2022/06/19 13:34:57;;;;;;;3.42;1.77;;;35.00;39.20;;;;;;11057923;32;20014;-74
2022/06/19 13:41:26;;;;;;;3.08;2.20;;;34.80;40.20;;;;;;11061789;32;20026;-73
2022/06/19 13:47:41;;;;;;;4.05;1.95;;;34.80;40.90;;;;;;11047900;32;20334;-71
2022/06/19 13:53:57;;;;;;;2.90;1.98;;;34.70;40.80;;;;;;11057083;32;20018;-72
2022/06/19 14:00:20;;;;;;;7.12;2.62;;;34.60;41.30;;;;;;11023842;32;20042;-73
2022/06/19 14:06:52;;;;;;;3.22;1.73;;;34.40;43.10;;;;;;11022091;32;20068;-74
2022/06/19 14:13:19;;;;;;;4.30;2.00;;;34.30;41.60;;;;;;11022487;32;20018;-68
2022/06/19 14:19:25;;;;;;;4.97;1.92;;;34.40;41.50;;;;;;11022139;32;20018;-69
2022/06/19 14:25:44;;;;;;;7.80;3.07;;;34.30;42.90;;;;;;11008468;32;20041;-67
2022/06/19 14:31:47;;;;;;;2.17;1.83;;;34.10;42.40;;;;;;11017419;32;20501;-67
2022/06/19 14:38:00;;;;;;;3.95;2.40;;;34.00;42.90;;;;;;11021296;32;20018;-67
2022/06/19 14:44:08;;;;;;;6.72;2.60;;;33.90;42.60;;;;;;11021089;32;20326;-68
2022/06/19 14:50:40;;;;;;;3.45;2.10;;;33.90;43.60;;;;;;11005418;32;20046;-66
2022/06/19 14:57:06;;;;;;;3.20;2.15;;;33.80;44.00;;;;;;10817460;32;20070;-67
2022/06/19 15:03:50;;;;;;;2.50;1.80;;;33.70;44.40;;;;;;10826558;32;20031;-68
2022/06/19 15:10:19;;;;;;;3.85;2.37;;;33.70;43.90;;;;;;10647423;33;20063;-68
2022/06/19 15:16:43;;;;;;;3.25;2.25;;;33.80;43.50;;;;;;10646928;33;20259;-66
2022/06/19 15:23:26;;;;;;;2.08;1.62;;;33.80;43.90;;;;;;10646778;33;20387;-69
2022/06/19 15:29:53;;;;;;;3.28;2.25;;;33.70;43.90;;;;;;10673769;33;20036;-69
2022/06/19 15:35:56;;;;;;;2.95;1.92;;;33.80;44.40;;;;;;10788218;33;20423;-69
2022/06/19 15:42:24;;;;;;;4.50;2.83;;;33.70;44.20;;;;;;10902787;32;20026;-69
2022/06/19 15:48:29;;;;;;;3.62;2.30;;;33.60;43.60;;;;;;11018925;32;20034;-69
2022/06/19 15:54:33;;;;;;;2.95;2.17;;;33.60;44.20;;;;;;11018693;32;20018;-68
2022/06/19 16:00:57;;;;;;;6.87;2.15;;;33.70;43.50;;;;;;11018294;32;20034;-67
2022/06/19 16:07:09;;;;;;;6.50;2.33;;;33.70;43.80;;;;;;11018155;32;20330;-67
2022/06/19 16:13:14;;;;;;;5.28;2.33;;;33.80;44.40;;;;;;11018160;32;20382;-73
2022/06/19 16:19:20;;;;;;;2.25;1.83;;;33.60;45.30;;;;;;11017559;32;20042;-70
2022/06/19 16:25:42;;;;;;;4.45;1.83;;;33.60;44.60;;;;;;11017455;32;20338;-67
2022/06/19 16:31:57;;;;;;;3.53;2.62;;;33.70;44.60;;;;;;11018101;32;20037;-66
2022/06/19 16:44:24;;;;;;;2.25;1.60;;;33.40;46.30;;;;;;11017256;32;20475;-67
2022/06/19 16:50:26;;;;;;;1.65;1.17;;;33.40;45.50;;;;;;11017057;32;20369;-67
2022/06/19 16:56:33;;;;;;;3.03;1.23;;;33.50;45.90;;;;;;11010674;32;20023;-68
2022/06/19 17:02:56;;;;;;;1.65;1.40;;;33.40;45.60;;;;;;11013123;32;20042;-67
2022/06/19 17:09:06;;;;;;;2.00;1.52;;;33.20;46.80;;;;;;11003592;32;20022;-67
2022/06/19 17:15:09;;;;;;;1.42;1.20;;;33.10;47.20;;;;;;11017199;32;20398;-68
2022/06/19 17:21:38;;;;;;;2.03;1.48;;;33.00;47.70;;;;;;11016554;32;20057;-69
2022/06/19 17:27:59;;;;;;;5.03;1.77;;;32.90;48.40;;;;;;11016695;32;20057;-67
2022/06/19 17:34:20;;;;;;;7.18;1.60;;;32.80;48.50;;;;;;11051023;32;20048;-68
2022/06/19 17:40:32;;;;;;;2.30;1.12;;;32.90;49.00;;;;;;11045850;32;20436;-67
2022/06/19 17:46:35;;;;;;;2.17;1.30;;;32.90;48.70;;;;;;11061507;32;20341;-67
2022/06/19 17:52:38;;;;;;;4.35;1.50;;;32.90;47.80;;;;;;11017236;32;20071;-69
2022/06/19 17:58:51;;;;;;;3.00;1.45;;;33.80;47.20;;;;;;11022890;32;20084;-68
2022/06/19 18:05:00;;;;;;;3.80;1.42;;;34.10;47.10;;;;;;11060649;32;20026;-67
2022/06/19 18:11:16;;;;;;;1.20;0.60;;;33.40;47.60;;;;;;11060731;32;20022;-67
2022/06/19 18:23:40;;;;;;;0.57;0.40;;;32.80;49.60;;;;;;11056067;32;20337;-67
2022/06/19 18:29:53;;;;;;;1.23;0.62;;;32.50;50.10;;;;;;11060154;32;20022;-67
2022/06/19 18:35:55;;;;;;;4.03;1.12;;;32.30;50.50;;;;;;11036179;32;20030;-67
2022/06/19 18:41:59;;;;;;;2.92;1.23;;;32.10;50.90;;;;;;11032484;32;20080;-67
2022/06/19 18:48:03;;;;;;;1.40;0.70;;;32.00;51.40;;;;;;11022467;32;20392;-67
2022/06/19 18:54:08;;;;;;;2.20;0.88;;;31.80;51.60;;;;;;11019154;32;20274;-67
2022/06/19 19:00:20;;;;;;;1.75;0.70;;;31.70;51.80;;;;;;11007166;32;20052;-67
2022/06/19 19:06:23;;;;;;;1.95;1.30;;;31.60;52.00;;;;;;11020725;32;20428;-67
2022/06/19 19:12:34;;;;;;;1.17;0.80;;;31.40;52.50;;;;;;11006707;32;20034;-67
2022/06/19 19:18:37;;;;;;;3.30;1.25;;;31.30;52.90;;;;;;11020117;32;20030;-67
2022/06/19 19:24:39;;;;;;;1.48;1.10;;;31.30;53.00;;;;;;11006255;32;20303;-67
2022/06/19 19:30:42;;;;;;;3.53;1.00;;;31.20;53.10;;;;;;11016092;32;20053;-67
2022/06/19 19:36:45;;;;;;;3.05;0.98;;;31.10;53.40;;;;;;11015140;32;20022;-67
2022/06/19 19:42:48;;;;;;;1.50;1.10;;;30.80;53.80;;;;;;11017160;32;20025;-67
2022/06/19 19:48:51;;;;;;;0.82;0.75;;;30.80;54.20;;;;;;11019048;32;20018;-67
2022/06/19 19:54:54;;;;;;;2.10;1.10;;;30.60;54.50;;;;;;11005244;32;20034;-67
2022/06/19 20:00:58;;;;;;;1.33;1.02;;;30.50;54.90;;;;;;11004381;32;20022;-67
2022/06/19 20:13:21;;;;;;;5.00;1.15;;;30.30;55.30;;;;;;11018340;32;20091;-67
2022/06/19 20:19:23;;;;;;;2.35;1.55;;;30.30;55.50;;;;;;11013799;32;20053;-67
2022/06/19 20:25:31;;;;;;;2.53;1.02;;;30.20;55.70;;;;;;11017794;32;20038;-67
2022/06/19 20:31:33;;;;;;;1.73;1.15;;;30.10;55.90;;;;;;10572962;27;12008661;-67
2022/06/19 20:37:39;;;;;;;2.00;1.23;;;30.00;56.20;;;;;;10925070;32;20343;-66
2022/06/19 20:43:41;;;;;;;1.77;1.02;;;30.00;56.40;;;;;;10938291;32;20198;-66
2022/06/19 20:49:49;;;;;;;1.95;1.17;;;29.90;56.60;;;;;;10925223;32;20034;-66
2022/06/19 20:55:52;;;;;;;2.25;1.00;;;29.90;57.50;;;;;;10984297;32;20433;-66
2022/06/19 21:01:54;;;;;;;3.12;1.12;;;29.90;57.70;;;;;;11017130;32;20322;-66
2022/06/19 21:07:59;;;;;;;4.32;1.65;;;29.80;57.70;;;;;;11017233;32;20042;-66
2022/06/19 21:14:01;;;;;;;2.03;1.30;;;29.60;58.00;;;;;;11007850;32;20041;-66
2022/06/19 21:20:04;;;;;;;3.47;1.30;;;29.50;58.40;;;;;;11024161;32;20018;-66
2022/06/19 21:26:08;;;;;;;2.67;1.48;;;29.50;58.20;;;;;;11020944;32;20022;-67
2022/06/19 21:32:16;;;;;;;0.85;0.85;;;29.50;58.20;;;;;;11023899;32;20022;-66
2022/06/19 21:38:19;;;;;;;;;;;29.40;58.60;;;;;;11024132;32;20018;-66
2022/06/19 21:44:22;;;;;;;2.22;1.15;;;29.20;59.00;;;;;;11023461;32;19940;-66
2022/06/19 21:50:26;;;;;;;1.65;1.35;;;29.10;59.40;;;;;;11023165;32;20026;-66
2022/06/19 21:56:34;;;;;;;1.65;1.23;;;29.00;59.60;;;;;;11023075;32;20037;-66
2022/06/19 22:02:36;;;;;;;3.25;1.83;;;29.00;60.20;;;;;;11022170;32;20022;-66
2022/06/19 22:08:38;;;;;;;2.87;1.83;;;29.00;60.00;;;;;;11018178;32;20045;-66
2022/06/19 22:14:40;;;;;;;5.28;1.15;;;29.00;60.10;;;;;;11004519;32;20041;-66
2022/06/19 22:20:45;;;;;;;2.08;1.75;;;28.90;60.40;;;;;;11022150;32;20382;-66
2022/06/19 22:26:50;;;;;;;2.42;1.52;;;28.90;60.50;;;;;;11017761;32;20049;-66
2022/06/19 22:32:53;;;;;;;4.90;1.75;;;28.80;60.70;;;;;;11008148;32;20366;-66
2022/06/19 22:39:16;;;;;;;2.15;1.67;;;28.70;60.90;;;;;;11019998;32;20053;-66
2022/06/19 22:45:21;;;;;;;2.17;1.80;;;28.80;60.70;;;;;;11021357;32;20044;-66
2022/06/19 22:51:23;;;;;;;2.22;1.20;;;28.70;61.00;;;;;;11018372;32;20065;-66
2022/06/19 22:57:46;;;;;;;1.90;1.27;;;28.50;61.30;;;;;;11016665;32;20011;-66
2022/06/19 23:03:48;;;;;;;3.28;2.12;;;28.40;61.60;;;;;;11020722;32;20394;-66
2022/06/19 23:09:50;;;;;;;3.33;2.20;;;28.40;61.90;;;;;;11020457;32;20010;-67
2022/06/19 23:15:54;;;;;;;2.55;1.75;;;28.40;61.60;;;;;;11020101;32;20054;-67
2022/06/19 23:21:57;;;;;;;2.28;1.50;;;28.40;61.50;;;;;;11019978;32;20015;-66
2022/06/19 23:28:01;;;;;;;1.70;1.52;;;28.40;61.40;;;;;;11015305;32;20021;-67
2022/06/19 23:34:03;;;;;;;2.80;1.95;;;28.30;61.90;;;;;;11019127;32;20387;-66
2022/06/19 23:40:07;;;;;;;3.85;2.17;;;28.30;62.60;;;;;;11018988;32;20011;-66
2022/06/19 23:46:13;;;;;;;2.75;2.08;;;28.30;62.30;;;;;;11019110;32;20033;-66
2022/06/19 23:52:15;;;;;;;2.10;1.70;;;28.30;62.50;;;;;;11014667;32;20322;-66
2022/06/19 23:58:19;;;;;;;2.33;1.73;;;28.10;62.70;;;;;;11016370;32;20019;-66
